Time;durP1;ratioP1;P1;durP2;ratioP2;P2;SDS_P1;SDS_P2;PMS_P1;PMS_P2;Temp;Humidity;BMP_temperature;BMP_pressure;BME280_temperature;BME280_humidity;BME280_pressure;Samples;Min_cycle;Max_cycle;Signal;HPM_P1;HPM_P2
2022/11/10 00:02:24;;;;;;;42.33;28.60;;;;;;;4.61;100.00;100346.41;1769183;81;21027;-67
2022/11/10 00:05:10;;;;;;;42.45;29.00;;;;;;;4.60;100.00;100339.91;1728961;81;21118;-67
2022/11/10 00:07:54;;;;;;;40.00;27.35;;;;;;;4.59;100.00;100339.07;1773757;81;21010;-67
2022/11/10 00:10:55;;;;;;;38.35;26.60;;;;;;;4.58;100.00;100336.58;1766553;81;21593;-67
2022/11/10 00:13:34;;;;;;;38.30;28.45;;;;;;;4.52;100.00;100339.64;1755448;81;21507;-67
2022/11/10 00:19:23;;;;;;;41.02;27.62;;;;;;;4.44;100.00;100338.02;1760645;81;21126;-68
2022/11/10 00:22:09;;;;;;;40.33;26.70;;;;;;;4.45;100.00;100328.91;1733886;81;21601;-67
2022/11/10 00:24:54;;;;;;;37.48;26.45;;;;;;;4.47;100.00;100329.50;1754526;81;21046;-68
2022/11/10 00:27:39;;;;;;;38.88;26.27;;;;;;;4.48;100.00;100324.42;1755538;81;21557;-68
2022/11/10 00:30:24;;;;;;;39.98;27.05;;;;;;;4.49;100.00;100325.25;1763151;81;21102;-68
2022/11/10 00:33:10;;;;;;;36.90;25.80;;;;;;;4.49;100.00;100316.64;1704893;84;21581;-68
2022/11/10 00:35:59;;;;;;;40.20;27.10;;;;;;;4.47;100.00;100314.67;1707523;83;21166;-69
2022/11/10 00:38:44;;;;;;;41.83;27.37;;;;;;;4.42;100.00;100315.86;1710099;83;21122;-69
2022/11/10 00:41:30;;;;;;;39.00;26.02;;;;;;;4.42;100.00;100323.12;1707470;83;21078;-69
2022/11/10 00:44:16;;;;;;;37.90;25.45;;;;;;;4.43;100.00;100317.49;1703942;83;21157;-69
2022/11/10 00:47:01;;;;;;;38.58;24.30;;;;;;;4.46;100.00;100314.91;1712527;83;21027;-69
2022/11/10 00:49:46;;;;;;;34.83;24.92;;;;;;;4.44;100.00;100312.41;1706980;82;21459;-68
2022/11/10 00:52:31;;;;;;;36.35;25.35;;;;;;;4.45;100.00;100311.37;1737337;82;21052;-68
2022/11/10 00:55:16;;;;;;;34.65;23.80;;;;;;;4.46;100.00;100310.31;1736695;82;21446;-68
2022/11/10 00:58:01;;;;;;;35.00;25.15;;;;;;;4.44;100.00;100309.72;1733912;82;21084;-68
2022/11/10 01:00:46;;;;;;;36.38;24.92;;;;;;;4.39;100.00;100306.84;1730816;82;21092;-68
2022/11/10 01:03:32;;;;;;;33.05;24.50;;;;;;;4.37;100.00;100305.41;1735070;82;22180;-68
2022/11/10 01:06:19;;;;;;;34.35;23.95;;;;;;;4.39;100.00;100299.30;1739544;82;21056;-69
2022/11/10 01:09:04;;;;;;;35.80;23.25;;;;;;;4.40;100.00;100299.58;1733427;82;21076;-69
2022/11/10 01:11:49;;;;;;;31.85;23.07;;;;;;;4.42;100.00;100295.64;1740661;82;21021;-69
2022/11/10 01:14:35;;;;;;;33.42;22.52;;;;;;;4.44;100.00;100288.67;1728063;82;21100;-68
2022/11/10 01:17:20;;;;;;;33.53;24.55;;;;;;;4.44;100.00;100296.23;1732043;82;21578;-68
2022/11/10 01:20:07;;;;;;;33.28;24.30;;;;;;;4.43;100.00;100295.09;1735259;82;21099;-68
2022/11/10 01:22:54;;;;;;;36.33;23.50;;;;;;;4.36;100.00;100298.36;1698597;82;21073;-68
2022/11/10 01:25:39;;;;;;;34.70;23.70;;;;;;;4.33;100.00;100290.72;1735981;82;21633;-68
2022/11/10 01:28:26;;;;;;;37.75;23.25;;;;;;;4.34;100.00;100296.42;1737063;82;21059;-68
2022/11/10 01:31:14;;;;;;;34.05;22.90;;;;;;;4.37;100.00;100300.84;1735303;82;21096;-68
2022/11/10 01:34:03;;;;;;;36.05;21.93;;;;;;;4.37;100.00;100294.11;1740362;82;21096;-70
2022/11/10 01:36:49;;;;;;;33.42;21.77;;;;;;;4.36;100.00;100292.45;1735252;82;21060;-68
2022/11/10 01:39:34;;;;;;;33.23;21.33;;;;;;;4.37;100.00;100298.67;1729889;82;21116;-68
2022/11/10 01:42:27;;;;;;;31.87;20.92;;;;;;;4.38;100.00;100289.55;1741275;82;21361;-69
2022/11/10 01:45:27;;;;;;;33.90;22.58;;;;;;;4.34;100.00;100295.06;1735333;82;21110;-68
2022/11/10 01:48:27;;;;;;;31.90;21.10;;;;;;;4.26;100.00;100288.06;1739697;82;21040;-68
2022/11/10 01:51:18;;;;;;;31.35;22.00;;;;;;;4.24;100.00;100290.69;1716120;82;21055;-68
2022/11/10 01:54:07;;;;;;;28.27;20.48;;;;;;;4.23;100.00;100285.81;1762757;80;21015;-68
2022/11/10 01:56:59;;;;;;;29.90;20.30;;;;;;;4.23;100.00;100279.59;1770219;80;21585;-68
2022/11/10 01:59:46;;;;;;;30.68;21.27;;;;;;;4.23;100.00;100294.41;1764986;80;21094;-68
2022/11/10 02:02:38;;;;;;;32.70;21.93;;;;;;;4.22;100.00;100294.09;1769684;80;21039;-68
2022/11/10 02:05:23;;;;;;;35.17;21.52;;;;;;;4.18;100.00;100286.97;1710811;82;21090;-68
2022/11/10 02:08:08;;;;;;;32.75;22.25;;;;;;;4.12;100.00;100295.09;1764924;80;21015;-68
2022/11/10 02:10:53;;;;;;;36.15;22.65;;;;;;;4.11;100.00;100293.47;1774659;80;21062;-68
2022/11/10 02:13:39;;;;;;;32.80;22.85;;;;;;;4.15;100.00;100290.62;1762739;80;21008;-68
2022/11/10 02:16:24;;;;;;;33.95;22.27;;;;;;;4.18;100.00;100292.91;1766284;80;21514;-68
2022/11/10 02:19:16;;;;;;;35.68;23.32;;;;;;;4.19;100.00;100288.63;1766055;80;21007;-68
2022/11/10 02:22:01;;;;;;;29.20;21.97;;;;;;;4.24;100.00;100288.82;1756195;80;21486;-68
2022/11/10 02:24:46;;;;;;;33.15;22.75;;;;;;;4.24;100.00;100288.82;1754751;80;21684;-68
2022/11/10 02:27:31;;;;;;;33.65;22.75;;;;;;;4.22;100.00;100294.92;1764901;80;21039;-68
2022/11/10 02:30:16;;;;;;;32.05;21.62;;;;;;;4.26;100.00;100295.32;1759932;80;21094;-69
2022/11/10 02:33:02;;;;;;;30.80;20.92;;;;;;;4.32;100.00;100302.02;1764738;80;21058;-68
2022/11/10 02:35:47;;;;;;;31.93;20.60;;;;;;;4.40;100.00;100306.32;1760431;80;21098;-68
2022/11/10 02:38:34;;;;;;;30.05;20.17;;;;;;;4.44;100.00;100308.37;1759343;80;20979;-68
2022/11/10 02:41:19;;;;;;;31.25;20.52;;;;;;;4.49;100.00;100307.20;1760955;80;21545;-68
2022/11/10 02:44:04;;;;;;;32.85;22.13;;;;;;;4.53;100.00;100305.70;1766508;80;21075;-68
2022/11/10 02:46:49;;;;;;;29.87;21.20;;;;;;;4.56;100.00;100313.06;1759650;80;21011;-68
2022/11/10 02:49:36;;;;;;;31.87;21.70;;;;;;;4.52;100.00;100301.89;1759886;80;22364;-68
2022/11/10 02:52:21;;;;;;;30.60;19.77;;;;;;;4.56;100.00;100308.50;1757991;80;21557;-68
2022/11/10 02:55:06;;;;;;;29.30;20.35;;;;;;;4.62;100.00;100302.75;1761546;80;21157;-68
2022/11/10 02:57:52;;;;;;;33.33;20.82;;;;;;;4.69;100.00;100303.52;1756758;80;21541;-68
2022/11/10 03:00:37;;;;;;;28.67;18.75;;;;;;;4.72;100.00;100301.20;1769280;80;21711;-68
2022/11/10 03:03:22;;;;;;;30.95;19.40;;;;;;;4.75;100.00;100293.19;1761012;80;21026;-68
2022/11/10 03:06:08;;;;;;;28.75;19.92;;;;;;;4.75;100.00;100297.23;1762869;80;21055;-68
2022/11/10 03:08:53;;;;;;;28.92;19.32;;;;;;;4.71;100.00;100290.66;1769337;80;21012;-68
2022/11/10 03:11:37;;;;;;;31.07;20.43;;;;;;;4.72;100.00;100285.02;1769121;80;20992;-68
2022/11/10 03:14:22;;;;;;;27.90;19.25;;;;;;;4.77;100.00;100278.98;1760345;80;21082;-68
2022/11/10 03:17:08;;;;;;;28.80;19.70;;;;;;;4.80;100.00;100276.66;1764146;80;20987;-68
2022/11/10 03:19:53;;;;;;;28.40;19.17;;;;;;;4.83;100.00;100276.73;1760815;80;21050;-68
2022/11/10 03:22:38;;;;;;;28.67;19.80;;;;;;;4.85;100.00;100280.05;1759296;80;21007;-68
2022/11/10 03:25:23;;;;;;;29.27;19.45;;;;;;;4.84;100.00;100269.78;1759002;80;21569;-68
2022/11/10 03:28:08;;;;;;;27.77;19.02;;;;;;;4.83;100.00;100272.69;1755937;80;21086;-68
2022/11/10 03:30:53;;;;;;;28.45;18.95;;;;;;;4.82;100.00;100276.42;1775410;80;21653;-68
2022/11/10 03:33:39;;;;;;;28.67;18.85;;;;;;;4.84;100.00;100275.18;1764617;80;20979;-68
2022/11/10 03:36:23;;;;;;;26.40;18.30;;;;;;;4.89;100.00;100280.72;1755304;80;21074;-68
2022/11/10 03:39:09;;;;;;;24.87;18.50;;;;;;;4.95;100.00;100270.92;1763805;80;21082;-68
2022/11/10 03:41:54;;;;;;;26.40;17.82;;;;;;;4.99;100.00;100266.74;1761392;80;21113;-68
2022/11/10 03:44:39;;;;;;;29.55;18.40;;;;;;;5.03;100.00;100273.31;1766045;80;21051;-68
2022/11/10 03:47:24;;;;;;;28.25;19.23;;;;;;;5.02;100.00;100268.99;1675210;84;21540;-68
2022/11/10 03:50:09;;;;;;;27.82;19.55;;;;;;;4.97;100.00;100269.65;1766600;80;21039;-68
2022/11/10 03:52:54;;;;;;;30.32;18.82;;;;;;;4.98;100.00;100266.44;1770321;80;21360;-67
2022/11/10 03:55:39;;;;;;;24.98;18.20;;;;;;;5.05;100.00;100273.11;1770674;80;21050;-68
2022/11/10 03:58:24;;;;;;;27.52;18.67;;;;;;;5.07;100.00;100265.08;1766988;80;21011;-68
2022/11/10 04:01:09;;;;;;;30.92;18.20;;;;;;;5.13;100.00;100266.08;1740992;80;21142;-68
2022/11/10 04:03:55;;;;;;;28.32;17.25;;;;;;;5.16;100.00;100261.06;1768961;80;21035;-68
2022/11/10 04:09:44;;;;;;;26.52;18.17;;;;;;;5.23;100.00;100273.97;1761267;80;21079;-68
2022/11/10 04:15:42;;;;;;;25.05;16.85;;;;;;;5.27;100.00;100266.24;1761936;80;21067;-68
2022/11/10 04:18:28;;;;;;;25.68;17.48;;;;;;;5.31;100.00;100267.45;1762697;80;21039;-68
2022/11/10 04:21:13;;;;;;;28.25;18.12;;;;;;;5.34;100.00;100270.52;1772060;80;21507;-68
2022/11/10 04:23:59;;;;;;;29.40;16.80;;;;;;;5.37;100.00;100263.84;1760974;80;21574;-67
2022/11/10 04:26:44;;;;;;;25.40;17.45;;;;;;;5.40;100.00;100262.03;1766487;80;21003;-68
2022/11/10 04:29:29;;;;;;;23.90;17.40;;;;;;;5.41;100.00;100265.05;1759467;80;21035;-68
2022/11/10 04:32:13;;;;;;;27.25;17.05;;;;;;;5.43;100.00;100267.81;1762125;80;21007;-68
2022/11/10 04:34:58;;;;;;;24.20;16.90;;;;;;;5.45;100.00;100264.37;1759559;80;21027;-68
2022/11/10 04:37:46;;;;;;;24.60;17.25;;;;;;;5.49;100.00;100272.30;1758856;80;21000;-69
2022/11/10 04:40:31;;;;;;;24.63;16.62;;;;;;;5.52;100.00;100269.70;1772592;80;21089;-67
2022/11/10 04:43:16;;;;;;;27.27;17.02;;;;;;;5.53;100.00;100276.20;1760957;80;21023;-69
2022/11/10 04:46:03;;;;;;;22.77;16.07;;;;;;;5.51;100.00;100267.52;1762282;80;21079;-69
2022/11/10 04:48:49;;;;;;;28.12;17.30;;;;;;;5.54;100.00;100275.68;1773726;80;21059;-69
2022/11/10 04:51:37;;;;;;;26.37;16.50;;;;;;;5.56;100.00;100275.47;1769313;80;21042;-69
2022/11/10 04:54:23;;;;;;;25.85;17.10;;;;;;;5.57;100.00;100285.20;1752951;80;21146;-69
2022/11/10 04:57:07;;;;;;;28.47;18.62;;;;;;;5.57;100.00;100284.67;1735883;80;21393;-69
2022/11/10 04:59:53;;;;;;;28.38;18.50;;;;;;;5.55;100.00;100281.91;1743522;81;21064;-70
2022/11/10 05:02:39;;;;;;;26.17;17.90;;;;;;;5.55;100.00;100281.39;1743870;81;21047;-69
2022/11/10 05:05:25;;;;;;;25.90;16.65;;;;;;;5.59;100.00;100285.81;1759334;81;21091;-68
2022/11/10 05:08:11;;;;;;;24.20;17.23;;;;;;;5.62;100.00;100287.54;1746214;81;21048;-68
2022/11/10 05:10:56;;;;;;;24.18;17.10;;;;;;;5.65;100.00;100291.66;1752072;81;21131;-68
2022/11/10 05:13:42;;;;;;;24.43;16.90;;;;;;;5.64;100.00;100290.00;1741113;81;21084;-68
2022/11/10 05:16:27;;;;;;;25.27;16.55;;;;;;;5.68;100.00;100292.55;1748281;81;21860;-68
2022/11/10 05:19:13;;;;;;;29.80;17.25;;;;;;;5.69;100.00;100299.61;1747001;81;21016;-68
2022/11/10 05:21:59;;;;;;;24.00;16.65;;;;;;;5.71;100.00;100301.55;1760660;81;21424;-68
2022/11/10 05:24:45;;;;;;;26.50;17.35;;;;;;;5.73;100.00;100303.52;1741468;81;21079;-68
2022/11/10 05:27:30;;;;;;;25.10;16.70;;;;;;;5.70;100.00;100302.63;1739448;81;21028;-68
2022/11/10 05:30:16;;;;;;;23.80;16.73;;;;;;;5.68;100.00;100300.13;1722574;82;21039;-68
2022/11/10 05:33:01;;;;;;;25.45;16.90;;;;;;;5.73;100.00;100312.97;1720064;82;22182;-68
2022/11/10 05:35:50;;;;;;;27.40;16.45;;;;;;;5.76;100.00;100313.86;1754983;81;21138;-67
2022/11/10 05:38:35;;;;;;;24.40;16.57;;;;;;;5.78;100.00;100325.25;1751136;81;21004;-67
2022/11/10 05:41:21;;;;;;;24.80;16.80;;;;;;;5.79;100.00;100320.98;1747817;81;21118;-67
2022/11/10 05:44:07;;;;;;;25.30;16.87;;;;;;;5.75;100.00;100326.54;1745752;81;21023;-67
2022/11/10 05:46:52;;;;;;;23.92;16.75;;;;;;;5.81;100.00;100328.87;1748430;81;21043;-68
2022/11/10 05:49:37;;;;;;;26.00;16.07;;;;;;;5.86;100.00;100335.27;1746827;81;21696;-67
2022/11/10 05:52:22;;;;;;;22.35;16.32;;;;;;;5.90;100.00;100337.00;1748929;81;21015;-70
2022/11/10 05:55:08;;;;;;;23.22;15.53;;;;;;;5.96;100.00;100345.54;1737001;81;21064;-68
2022/11/10 05:57:54;;;;;;;25.72;17.42;;;;;;;5.99;100.00;100338.33;1717505;81;21414;-67
2022/11/10 06:00:39;;;;;;;23.80;16.55;;;;;;;6.00;100.00;100346.74;1746494;81;21922;-67
2022/11/10 06:03:24;;;;;;;24.90;16.80;;;;;;;6.03;100.00;100349.51;1753278;81;20999;-66
2022/11/10 06:06:09;;;;;;;24.57;15.90;;;;;;;6.11;100.00;100356.80;1742012;81;21617;-67
2022/11/10 06:08:58;;;;;;;24.52;16.57;;;;;;;6.18;100.00;100362.11;1742556;81;21023;-66
2022/11/10 06:11:43;;;;;;;21.62;16.35;;;;;;;6.21;100.00;100360.30;1754114;81;21067;-67
2022/11/10 06:14:29;;;;;;;23.83;16.87;;;;;;;6.21;100.00;100353.53;1758930;81;21613;-67
2022/11/10 06:17:14;;;;;;;25.57;16.82;;;;;;;6.17;100.00;100355.05;1766330;81;22311;-68
2022/11/10 06:19:59;;;;;;;23.35;17.48;;;;;;;6.18;100.00;100351.30;1747950;81;21063;-68
2022/11/10 06:23:04;;;;;;;24.82;16.45;;;;;;;6.25;100.00;100356.09;1736997;82;21051;-69
2022/11/10 06:25:49;;;;;;;23.95;16.50;;;;;;;6.29;100.00;100354.06;1726870;81;21083;-68
2022/11/10 06:28:35;;;;;;;24.30;15.58;;;;;;;6.34;100.00;100348.77;1755829;81;21055;-69
2022/11/10 06:31:21;;;;;;;26.62;17.10;;;;;;;6.39;100.00;100354.85;1745373;81;21047;-68
2022/11/10 06:34:06;;;;;;;26.02;17.40;;;;;;;6.34;100.00;100358.78;1767498;81;21603;-68
2022/11/10 06:36:52;;;;;;;24.75;16.42;;;;;;;6.33;100.00;100359.31;1764371;81;21518;-68
2022/11/10 06:39:37;;;;;;;24.32;16.05;;;;;;;6.33;100.00;100353.07;1752019;81;21645;-68
2022/11/10 06:42:22;;;;;;;24.67;16.70;;;;;;;6.33;100.00;100357.95;1760590;81;21498;-68
2022/11/10 06:45:07;;;;;;;24.80;16.25;;;;;;;6.35;100.00;100360.41;1737151;82;21631;-68
2022/11/10 06:48:05;;;;;;;23.20;16.75;;;;;;;6.30;100.00;100366.53;1744215;81;21077;-69
2022/11/10 06:50:50;;;;;;;23.15;16.85;;;;;;;6.27;100.00;100360.20;1719491;82;21131;-69
2022/11/10 06:53:35;;;;;;;25.40;16.82;;;;;;;6.28;100.00;100358.33;1738871;81;21091;-68
2022/11/10 06:56:20;;;;;;;24.70;16.97;;;;;;;6.34;100.00;100360.14;1745481;82;21070;-68
2022/11/10 06:59:05;;;;;;;26.70;16.42;;;;;;;6.36;100.00;100355.31;1754479;81;21000;-66
2022/11/10 07:01:50;;;;;;;24.87;16.35;;;;;;;6.38;100.00;100361.30;1748862;81;22268;-66
2022/11/10 07:04:35;;;;;;;24.30;16.40;;;;;;;6.36;100.00;100356.14;1769026;81;21815;-66
2022/11/10 07:07:20;;;;;;;24.72;16.75;;;;;;;6.35;100.00;100366.66;1775406;81;21078;-66
2022/11/10 07:10:07;;;;;;;24.67;15.65;;;;;;;6.39;100.00;100364.31;1766216;81;21078;-66
2022/11/10 07:12:57;;;;;;;23.10;15.60;;;;;;;6.45;100.00;100361.52;1683534;84;21655;-66
2022/11/10 07:15:42;;;;;;;21.27;14.53;;;;;;;6.51;100.00;100365.20;1709279;83;21130;-66
2022/11/10 07:18:27;;;;;;;22.15;14.70;;;;;;;6.58;100.00;100362.39;1725421;83;21008;-67
2022/11/10 07:21:12;;;;;;;21.40;15.53;;;;;;;6.60;100.00;100367.03;1726100;83;21106;-66
2022/11/10 07:23:57;;;;;;;23.45;15.70;;;;;;;6.61;100.00;100365.98;1724464;83;21066;-67
2022/11/10 07:26:42;;;;;;;20.92;15.08;;;;;;;6.65;100.00;100364.47;1712920;83;21058;-67
2022/11/10 07:29:27;;;;;;;24.55;14.60;;;;;;;6.74;100.00;100364.42;1720354;83;21161;-66
2022/11/10 07:32:12;;;;;;;23.30;15.55;;;;;;;6.79;100.00;100364.05;1723642;83;21114;-66
2022/11/10 07:34:56;;;;;;;22.25;15.40;;;;;;;6.77;100.00;100358.55;1720356;82;21381;-67
2022/11/10 07:37:42;;;;;;;24.00;15.70;;;;;;;6.75;100.00;100364.73;1745448;82;21074;-66
2022/11/10 07:40:27;;;;;;;23.38;15.60;;;;;;;6.80;100.00;100366.23;1753366;81;21099;-66
2022/11/10 07:43:12;;;;;;;23.65;15.00;;;;;;;6.86;100.00;100365.29;1752450;81;21023;-66
2022/11/10 07:45:58;;;;;;;20.37;15.38;;;;;;;6.95;100.00;100370.65;1749501;81;21118;-67
2022/11/10 07:48:44;;;;;;;22.63;15.87;;;;;;;7.00;100.00;100369.44;1762140;81;21035;-66
2022/11/10 07:51:31;;;;;;;19.98;14.65;;;;;;;7.03;100.00;100366.78;1752722;81;21557;-67
2022/11/10 07:54:16;;;;;;;24.77;15.03;;;;;;;7.08;100.00;100370.45;1756963;81;21086;-68
2022/11/10 07:57:02;;;;;;;23.55;15.48;;;;;;;7.14;100.00;100376.28;1734271;81;21597;-67
2022/11/10 07:59:47;;;;;;;23.30;15.05;;;;;;;7.20;100.00;100366.38;1773943;81;21103;-67
2022/11/10 08:02:32;;;;;;;23.98;16.20;;;;;;;7.23;100.00;100369.97;1762283;81;21419;-67
2022/11/10 08:05:18;;;;;;;21.82;15.05;;;;;;;7.24;100.00;100373.81;1760103;81;21687;-67
2022/11/10 08:08:04;;;;;;;21.48;14.78;;;;;;;7.27;100.00;100376.58;1752964;81;21082;-67
2022/11/10 08:10:50;;;;;;;24.77;15.53;;;;;;;7.32;100.00;100376.19;1770447;81;21805;-66
2022/11/10 08:13:38;;;;;;;22.17;14.68;;;;;;;7.36;100.00;100373.30;1755280;81;20988;-66
2022/11/10 08:16:23;;;;;;;23.18;15.58;;;;;;;7.38;100.00;100373.88;1748961;81;21047;-66
2022/11/10 08:19:10;;;;;;;24.45;17.20;;;;;;;7.42;100.00;100381.00;1755471;81;21022;-66
2022/11/10 08:21:55;;;;;;;24.05;17.15;;;;;;;7.40;100.00;100381.23;1768227;81;21035;-66
2022/11/10 08:24:40;;;;;;;26.65;16.77;;;;;;;7.43;100.00;100374.01;1757960;81;21123;-66
2022/11/10 08:27:25;;;;;;;27.22;16.82;;;;;;;7.52;100.00;100377.17;1758426;79;21054;-66
2022/11/10 08:30:11;;;;;;;25.52;15.95;;;;;;;7.60;100.00;100385.48;1745415;82;21131;-67
2022/11/10 08:32:58;;;;;;;25.60;17.57;;;;;;;7.60;100.00;100382.23;1747680;81;21063;-66
2022/11/10 08:35:46;;;;;;;26.27;17.65;;;;;;;7.62;100.00;100384.70;1760902;81;21055;-66
2022/11/10 08:38:30;;;;;;;;;;;;;;;7.67;100.00;100386.17;1762499;79;20972;-66
2022/11/10 08:41:15;;;;;;;25.52;15.68;;;;;;;7.78;100.00;100387.53;1764805;79;20491;-66
2022/11/10 08:44:00;;;;;;;25.32;17.48;;;;;;;7.81;100.00;100383.51;1768145;81;21000;-66
2022/11/10 08:46:46;;;;;;;24.60;16.82;;;;;;;7.88;100.00;100389.10;1750248;81;21034;-66
2022/11/10 08:49:31;;;;;;;27.22;18.55;;;;;;;7.92;100.00;100388.92;1748467;81;21114;-66
2022/11/10 08:52:16;;;;;;;28.87;18.23;;;;;;;7.91;100.00;100383.72;1745442;81;21088;-66
2022/11/10 08:55:04;;;;;;;27.15;16.05;;;;;;;7.96;100.00;100387.91;1766498;79;21063;-66
2022/11/10 08:57:49;;;;;;;28.23;18.85;;;;;;;8.02;100.00;100382.87;1741530;81;21098;-66
2022/11/10 09:00:35;;;;;;;29.18;20.40;;;;;;;8.02;100.00;100381.52;1742547;81;21131;-66
2022/11/10 09:03:22;;;;;;;31.02;20.32;;;;;;;8.03;100.00;100384.53;1767294;81;21696;-67
2022/11/10 09:06:07;;;;;;;30.40;19.80;;;;;;;8.07;100.00;100387.06;1761815;81;21060;-67
2022/11/10 09:08:51;;;;;;;27.35;17.95;;;;;;;8.14;100.00;100386.40;1743827;81;21097;-67
2022/11/10 09:11:36;;;;;;;34.92;22.27;;;;;;;8.20;100.00;100390.03;1757347;81;21043;-68
2022/11/10 09:14:22;;;;;;;32.23;21.30;;;;;;;8.21;100.00;100384.91;1766333;81;21107;-68
2022/11/10 09:17:07;;;;;;;30.70;19.15;;;;;;;8.17;100.00;100388.63;1749398;81;21514;-67
2022/11/10 09:19:52;;;;;;;28.20;19.27;;;;;;;8.16;100.00;100387.50;1739636;81;21573;-67
2022/11/10 09:22:38;;;;;;;29.57;20.90;;;;;;;8.18;100.00;100390.81;1757763;81;22124;-65
2022/11/10 09:25:23;;;;;;;31.48;19.82;;;;;;;8.24;100.00;100382.53;1751086;81;21118;-66
2022/11/10 09:28:12;;;;;;;30.30;21.02;;;;;;;8.28;100.00;100388.30;1757310;81;21075;-66
2022/11/10 09:30:57;;;;;;;30.77;21.33;;;;;;;8.26;100.00;100383.10;1762713;81;21087;-67
2022/11/10 09:33:42;;;;;;;33.75;20.45;;;;;;;8.31;100.00;100387.31;1762125;81;21123;-67
2022/11/10 09:36:27;;;;;;;34.55;20.25;;;;;;;8.40;100.00;100386.38;1740727;81;21071;-67
2022/11/10 09:39:14;;;;;;;32.53;21.50;;;;;;;8.45;100.00;100383.25;1737171;82;21064;-67
2022/11/10 09:42:00;;;;;;;30.57;19.85;;;;;;;8.38;100.00;100381.75;1744797;81;21042;-67
2022/11/10 09:44:52;;;;;;;27.98;19.50;;;;;;;8.40;100.00;100380.43;1749674;81;21083;-66
2022/11/10 09:48:00;;;;;;;32.50;19.42;;;;;;;8.43;100.00;100378.59;1746273;81;21047;-67
2022/11/10 09:50:58;;;;;;;30.60;20.65;;;;;;;8.42;100.00;100371.53;1748880;81;21087;-66
2022/11/10 09:53:56;;;;;;;32.73;21.37;;;;;;;8.44;100.00;100372.10;1745811;81;21562;-66
2022/11/10 09:56:41;;;;;;;32.93;23.95;;;;;;;8.45;100.00;100377.00;1734913;81;21462;-67
2022/11/10 13:57:33;;;;;;;50.03;30.10;;;;;;;7.05;100.00;100425.59;1783953;78;22943;-67
2022/11/10 14:00:24;;;;;;;39.05;24.37;;;;;;;7.13;100.00;100432.00;1736813;82;21670;-66
2022/11/10 14:03:31;;;;;;;32.33;19.95;;;;;;;7.36;100.00;100431.53;1723548;83;21058;-67
2022/11/10 14:06:27;;;;;;;26.57;18.05;;;;;;;7.52;100.00;100432.70;1725006;82;21092;-67
2022/11/10 14:09:30;;;;;;;27.85;16.80;;;;;;;7.69;100.00;100429.59;1730464;83;21497;-67
2022/11/10 14:12:31;;;;;;;29.60;19.73;;;;;;;7.84;100.00;100428.58;1729117;83;21475;-67
2022/11/10 14:15:40;;;;;;;28.20;16.80;;;;;;;7.99;100.00;100425.39;1729317;82;21057;-67
2022/11/10 14:18:40;;;;;;;25.12;16.07;;;;;;;8.10;100.00;100426.43;1730367;82;21024;-67
2022/11/10 14:21:46;;;;;;;24.30;16.75;;;;;;;8.20;100.00;100424.75;1648586;83;21196;-67
2022/11/10 14:24:46;;;;;;;25.17;17.20;;;;;;;8.29;100.00;100422.54;1724935;82;21051;-67
2022/11/10 14:27:34;;;;;;;27.22;17.77;;;;;;;8.30;100.00;100413.31;1706514;83;21039;-67
2022/11/10 14:30:24;;;;;;;25.08;18.35;;;;;;;8.36;100.00;100413.73;1729831;81;21110;-67
2022/11/10 14:33:10;;;;;;;25.80;18.48;;;;;;;8.42;100.00;100413.59;1729374;83;20967;-67
2022/11/10 14:36:04;;;;;;;28.67;19.15;;;;;;;8.42;100.00;100419.02;1723448;82;21659;-66
2022/11/10 14:38:49;;;;;;;28.45;18.87;;;;;;;8.47;100.00;100419.63;1701333;83;21019;-66
2022/11/10 14:41:36;;;;;;;31.68;20.50;;;;;;;8.55;100.00;100417.89;1721995;83;21161;-67
2022/11/10 14:44:24;;;;;;;26.37;18.50;;;;;;;8.59;100.00;100420.42;1663077;82;21605;-66
2022/11/10 14:47:17;;;;;;;28.80;18.00;;;;;;;8.59;100.00;100419.06;1699856;84;21147;-66
2022/11/10 14:50:16;;;;;;;25.15;17.80;;;;;;;8.62;100.00;100418.57;1709949;83;21088;-67
2022/11/10 14:53:09;;;;;;;25.20;18.27;;;;;;;8.66;100.00;100408.88;1727902;82;21057;-66
2022/11/10 14:55:54;;;;;;;27.02;18.62;;;;;;;8.70;100.00;100414.13;1726282;80;21553;-66
2022/11/10 14:58:40;;;;;;;30.62;21.45;;;;;;;8.73;100.00;100416.34;1730649;83;20961;-66
2022/11/10 15:01:33;;;;;;;27.70;19.65;;;;;;;8.68;100.00;100414.88;1731130;83;21064;-66
2022/11/10 15:04:18;;;;;;;27.80;19.00;;;;;;;8.70;100.00;100413.30;1726764;82;21485;-66
2022/11/10 15:07:04;;;;;;;26.00;17.98;;;;;;;8.74;100.00;100421.24;1725074;83;21511;-66
2022/11/10 15:10:06;;;;;;;23.22;17.50;;;;;;;8.76;100.00;100420.45;1728361;83;21646;-67
2022/11/10 15:13:13;;;;;;;27.00;19.87;;;;;;;8.75;100.00;100422.90;1728426;83;21486;-66
2022/11/10 15:16:28;;;;;;;29.70;20.00;;;;;;;8.70;100.00;100422.27;1725466;83;21407;-66
2022/11/10 15:19:27;;;;;;;26.20;17.30;;;;;;;8.72;100.00;100416.58;1730186;82;20984;-66
2022/11/10 15:22:28;;;;;;;26.52;17.27;;;;;;;8.68;100.00;100413.52;1727974;82;21506;-66
2022/11/10 15:25:18;;;;;;;25.25;17.55;;;;;;;8.65;100.00;100414.02;1724448;82;21059;-66
2022/11/10 15:28:28;;;;;;;24.10;16.60;;;;;;;8.59;100.00;100416.87;1723149;83;21109;-66
2022/11/10 15:31:26;;;;;;;23.70;16.05;;;;;;;8.57;100.00;100417.14;1723092;82;21145;-66
2022/11/10 15:34:32;;;;;;;24.75;16.65;;;;;;;8.60;100.00;100410.39;1725762;82;21019;-66
2022/11/10 15:37:26;;;;;;;22.02;16.27;;;;;;;8.63;100.00;100408.55;1725833;83;22100;-66
2022/11/10 15:40:37;;;;;;;24.95;16.70;;;;;;;8.57;100.00;100409.52;1728622;82;21127;-66
2022/11/10 15:43:26;;;;;;;25.70;16.48;;;;;;;8.56;100.00;100411.94;1713293;83;21034;-66
2022/11/10 15:46:15;;;;;;;21.85;15.78;;;;;;;8.58;100.00;100422.00;1723231;82;21125;-66
2022/11/10 15:49:02;;;;;;;23.40;15.83;;;;;;;8.62;100.00;100429.95;1728505;82;20980;-66
2022/11/10 15:51:48;;;;;;;20.37;15.10;;;;;;;8.61;100.00;100414.20;1705345;82;21034;-67
2022/11/10 15:54:34;;;;;;;22.85;14.80;;;;;;;8.65;100.00;100406.39;1725119;81;21089;-66
2022/11/10 15:57:21;;;;;;;27.05;17.07;;;;;;;8.67;100.00;100403.75;1711658;83;21039;-67
2022/11/10 16:00:11;;;;;;;26.23;19.05;;;;;;;8.61;100.00;100407.41;1711471;82;21102;-66
2022/11/10 16:02:57;;;;;;;26.12;18.62;;;;;;;8.61;100.00;100397.12;1688484;84;21008;-68
2022/11/10 16:05:43;;;;;;;34.20;22.37;;;;;;;8.66;100.00;100398.55;1719171;81;21130;-68
2022/11/10 16:08:30;;;;;;;55.03;37.20;;;;;;;8.67;100.00;100405.11;1723990;82;21054;-67
2022/11/10 16:11:19;;;;;;;41.92;29.85;;;;;;;8.64;100.00;100412.91;1715160;83;21055;-67
2022/11/10 16:14:04;;;;;;;35.25;21.90;;;;;;;8.65;100.00;100416.72;1713831;81;21458;-67
2022/11/10 16:16:50;;;;;;;26.37;18.80;;;;;;;8.71;100.00;100421.73;1718603;82;21082;-67
2022/11/10 16:19:37;;;;;;;27.15;21.52;;;;;;;8.71;100.00;100423.09;1718381;82;21130;-67
2022/11/10 16:22:21;;;;;;;27.55;20.82;;;;;;;8.69;100.00;100423.84;1724275;82;21118;-66
2022/11/10 16:25:07;;;;;;;25.97;19.25;;;;;;;8.66;100.00;100427.05;1720124;82;21530;-67
2022/11/10 16:27:51;;;;;;;23.65;17.95;;;;;;;8.67;100.00;100426.83;1707090;82;21396;-67
2022/11/10 16:30:37;;;;;;;28.17;16.62;;;;;;;8.67;100.00;100428.71;1716302;82;21186;-66
2022/11/10 16:33:23;;;;;;;26.48;19.37;;;;;;;8.63;100.00;100424.30;1726124;82;20972;-67
2022/11/10 16:36:29;;;;;;;24.70;18.42;;;;;;;8.63;100.00;100427.02;1809662;79;21043;-66
2022/11/10 16:39:15;;;;;;;25.40;18.55;;;;;;;8.66;100.00;100422.45;1799783;78;21047;-66
2022/11/10 16:42:00;;;;;;;26.35;18.12;;;;;;;8.67;100.00;100433.61;1799936;79;21025;-68
2022/11/10 16:44:45;;;;;;;24.10;15.90;;;;;;;8.64;100.00;100422.41;1803275;78;21089;-67
2022/11/10 16:47:31;;;;;;;20.65;15.72;;;;;;;8.63;100.00;100418.05;1803770;79;21790;-68
2022/11/10 16:50:34;;;;;;;25.20;17.12;;;;;;;8.64;100.00;100418.34;1794116;79;21027;-66